Time;durP1;ratioP1;P1;durP2;ratioP2;P2;SDS_P1;SDS_P2;PMS_P1;PMS_P2;Temp;Humidity;BMP_temperature;BMP_pressure;BME280_temperature;BME280_humidity;BME280_pressure;Samples;Min_cycle;Max_cycle;Signal;HPM_P1;HPM_P2
2021/12/20 00:02:23;;;;;;;38.17;19.93;;;6.50;99.90;;;;;;5066944;28;20707;-65
2021/12/20 00:04:53;;;;;;;33.57;19.73;;;6.50;99.90;;;;;;5060972;28;20651;-65
2021/12/20 00:07:21;;;;;;;40.97;20.50;;;6.50;99.90;;;;;;5081194;28;20215;-65
2021/12/20 00:09:50;;;;;;;37.37;20.60;;;6.50;99.90;;;;;;5082907;28;20188;-65
2021/12/20 00:12:20;;;;;;;40.30;20.53;;;6.40;99.90;;;;;;5080330;28;20211;-64
2021/12/20 00:14:48;;;;;;;32.97;19.83;;;6.50;99.90;;;;;;5081250;28;20244;-64
2021/12/20 00:17:17;;;;;;;34.17;19.70;;;6.50;99.90;;;;;;5087229;28;20199;-64
2021/12/20 00:19:45;;;;;;;36.43;19.73;;;6.50;99.90;;;;;;5080687;28;20254;-64
2021/12/20 00:22:14;;;;;;;41.00;20.40;;;6.50;99.90;;;;;;5080305;28;20210;-65
2021/12/20 00:24:43;;;;;;;29.73;18.33;;;6.50;99.90;;;;;;5090009;28;20210;-65
2021/12/20 00:27:13;;;;;;;38.57;20.23;;;6.50;99.90;;;;;;5084281;28;20196;-64
2021/12/20 00:29:43;;;;;;;32.13;19.00;;;6.50;99.90;;;;;;5084112;28;20191;-65
2021/12/20 00:32:11;;;;;;;33.83;18.83;;;6.40;99.90;;;;;;5087836;28;20206;-65
2021/12/20 00:34:41;;;;;;;35.87;19.63;;;6.40;99.90;;;;;;5082806;28;20222;-65
2021/12/20 00:42:38;;;;;;;36.73;19.10;;;6.40;99.90;;;;;;5076761;28;20266;-64
2021/12/20 00:45:10;;;;;;;40.13;20.03;;;6.40;99.90;;;;;;5075922;28;20805;-65
2021/12/20 00:47:39;;;;;;;33.93;19.00;;;6.40;99.90;;;;;;5081459;28;20180;-65
2021/12/20 00:50:10;;;;;;;38.30;19.73;;;6.40;99.90;;;;;;5078396;28;20203;-65
2021/12/20 00:52:39;;;;;;;35.97;18.97;;;6.40;99.90;;;;;;5061505;28;20195;-64
2021/12/20 00:55:09;;;;;;;44.00;21.53;;;6.40;99.90;;;;;;5087669;28;20233;-65
2021/12/20 00:57:37;;;;;;;35.23;19.77;;;6.50;99.90;;;;;;5064927;28;20183;-64
2021/12/20 01:00:09;;;;;;;39.60;20.70;;;6.50;99.90;;;;;;5084644;28;20216;-65
2021/12/20 01:02:37;;;;;;;35.83;19.60;;;6.40;99.90;;;;;;5079889;28;20187;-65
2021/12/20 01:05:07;;;;;;;37.17;19.63;;;6.40;99.90;;;;;;5066267;28;20600;-65
2021/12/20 01:07:35;;;;;;;34.00;18.47;;;6.50;99.90;;;;;;5069249;28;20646;-65
2021/12/20 01:10:07;;;;;;;35.27;18.33;;;6.50;99.90;;;;;;5066171;28;20214;-65
2021/12/20 01:12:44;;;;;;;35.57;18.40;;;6.40;99.90;;;;;;5074884;28;20225;-64
2021/12/20 01:15:22;;;;;;;33.80;18.17;;;6.40;99.90;;;;;;5069985;28;20218;-65
2021/12/20 01:17:52;;;;;;;38.33;17.77;;;6.40;99.90;;;;;;5087127;28;20245;-64
2021/12/20 01:20:21;;;;;;;33.27;18.10;;;6.40;99.90;;;;;;5079372;28;20196;-65
2021/12/20 01:22:51;;;;;;;31.87;17.73;;;6.40;99.90;;;;;;5081215;28;20286;-64
2021/12/20 01:25:20;;;;;;;36.80;17.50;;;6.40;99.90;;;;;;5082058;28;20226;-64
2021/12/20 01:27:50;;;;;;;40.23;17.00;;;6.40;99.90;;;;;;5081842;28;20282;-65
2021/12/20 01:30:22;;;;;;;34.33;16.93;;;6.40;99.90;;;;;;5078598;28;20188;-64
2021/12/20 01:32:51;;;;;;;29.20;16.87;;;6.40;99.90;;;;;;5085771;28;20186;-64
2021/12/20 01:35:23;;;;;;;31.87;17.10;;;6.40;99.90;;;;;;5060884;28;20227;-64
2021/12/20 01:37:53;;;;;;;33.87;16.93;;;6.40;99.90;;;;;;5064811;28;20310;-65
2021/12/20 01:40:22;;;;;;;34.90;16.97;;;6.40;99.90;;;;;;5079276;28;20715;-65
2021/12/20 01:42:55;;;;;;;33.87;18.27;;;6.40;99.90;;;;;;5084159;28;20203;-64
2021/12/20 01:45:28;;;;;;;35.27;17.27;;;6.40;99.90;;;;;;5082515;28;20620;-64
2021/12/20 01:48:05;;;;;;;39.70;17.63;;;6.40;99.90;;;;;;5075084;28;20270;-65
2021/12/20 01:50:41;;;;;;;37.60;17.43;;;6.40;99.90;;;;;;5081566;28;20203;-65
2021/12/20 01:53:11;;;;;;;31.37;17.50;;;6.40;99.90;;;;;;5086116;28;20222;-65
2021/12/20 01:55:40;;;;;;;30.33;17.10;;;6.40;99.90;;;;;;5055514;28;20566;-65
2021/12/20 01:58:08;;;;;;;35.47;18.10;;;6.40;99.90;;;;;;5058015;28;20192;-64
2021/12/20 02:00:56;;;;;;;35.83;18.70;;;6.40;99.90;;;;;;5078777;28;20196;-64
2021/12/20 02:03:25;;;;;;;33.87;17.60;;;6.40;99.90;;;;;;5057052;28;20254;-65
2021/12/20 02:05:57;;;;;;;41.10;18.47;;;6.40;99.90;;;;;;5078745;28;20196;-65
2021/12/20 02:08:29;;;;;;;39.17;19.10;;;6.40;99.90;;;;;;5061650;28;20202;-65
2021/12/20 02:10:59;;;;;;;34.67;16.67;;;6.40;99.90;;;;;;5080180;28;20279;-64
2021/12/20 02:13:29;;;;;;;42.70;19.33;;;6.40;99.90;;;;;;5086732;28;20316;-65
2021/12/20 02:16:00;;;;;;;34.50;17.63;;;6.40;99.90;;;;;;5081723;28;20232;-64
2021/12/20 02:18:30;;;;;;;29.37;17.60;;;6.40;99.90;;;;;;5085772;28;20200;-65
2021/12/20 02:21:01;;;;;;;35.80;18.57;;;6.40;99.90;;;;;;5077738;28;20554;-64
2021/12/20 02:23:30;;;;;;;33.27;17.93;;;6.40;99.90;;;;;;5078389;28;20241;-64
2021/12/20 02:25:59;;;;;;;36.67;17.20;;;6.40;99.90;;;;;;5080939;28;20279;-64
2021/12/20 02:28:35;;;;;;;35.10;17.57;;;6.40;99.90;;;;;;5086938;28;20618;-65
2021/12/20 02:37:02;;;;;;;36.47;17.67;;;6.40;99.90;;;;;;5078781;28;20237;-65
2021/12/20 02:39:31;;;;;;;33.97;17.33;;;6.40;99.90;;;;;;5086131;28;20192;-65
2021/12/20 02:42:00;;;;;;;35.07;16.97;;;6.40;99.90;;;;;;5078307;28;20226;-65
2021/12/20 02:44:29;;;;;;;35.00;17.20;;;6.40;99.90;;;;;;5079187;28;20278;-65
2021/12/20 02:47:08;;;;;;;38.43;18.63;;;6.40;99.90;;;;;;5085731;28;20203;-65
2021/12/20 02:49:37;;;;;;;41.47;18.10;;;6.40;99.90;;;;;;5076789;28;20256;-65
2021/12/20 02:52:09;;;;;;;34.33;17.97;;;6.40;99.90;;;;;;5081984;28;20235;-64
2021/12/20 02:54:38;;;;;;;33.50;17.00;;;6.40;99.90;;;;;;5084515;28;20264;-64
2021/12/20 02:57:06;;;;;;;33.63;18.00;;;6.40;99.90;;;;;;5081346;28;20658;-65
2021/12/20 02:59:35;;;;;;;37.13;17.83;;;6.40;99.90;;;;;;5085160;28;20204;-64
2021/12/20 03:02:06;;;;;;;34.13;17.63;;;6.40;99.90;;;;;;5085346;28;20214;-64
2021/12/20 03:04:35;;;;;;;37.93;18.47;;;6.40;99.90;;;;;;5082540;28;20195;-65
2021/12/20 03:07:07;;;;;;;38.83;18.90;;;6.50;99.90;;;;;;5087860;28;20261;-65
2021/12/20 03:09:41;;;;;;;32.43;18.27;;;6.40;99.90;;;;;;5080572;28;20196;-65
2021/12/20 03:12:12;;;;;;;33.00;17.50;;;6.40;99.90;;;;;;5082473;28;20824;-64
2021/12/20 03:14:45;;;;;;;32.23;18.50;;;6.40;99.90;;;;;;5079626;28;20240;-64
2021/12/20 03:17:14;;;;;;;38.27;19.10;;;6.40;99.90;;;;;;5083881;28;20207;-65
2021/12/20 03:19:42;;;;;;;39.83;19.60;;;6.40;99.90;;;;;;5088224;28;20200;-64
2021/12/20 03:22:12;;;;;;;46.80;19.13;;;6.40;99.90;;;;;;5063248;28;20198;-65
2021/12/20 03:24:41;;;;;;;40.47;20.00;;;6.40;99.90;;;;;;5092169;28;20199;-64
2021/12/20 03:27:10;;;;;;;41.63;19.37;;;6.50;99.90;;;;;;5087494;28;20279;-64
2021/12/20 03:29:42;;;;;;;35.53;19.00;;;6.50;99.90;;;;;;5081439;28;20207;-64
2021/12/20 03:32:10;;;;;;;34.53;17.90;;;6.50;99.90;;;;;;5058710;28;20564;-64
2021/12/20 03:34:39;;;;;;;37.97;19.40;;;6.50;99.90;;;;;;5087486;28;20226;-64
2021/12/20 03:37:08;;;;;;;33.80;18.80;;;6.40;99.90;;;;;;5078888;28;20243;-65
2021/12/20 03:39:38;;;;;;;39.77;20.10;;;6.40;99.90;;;;;;5085570;28;20219;-65
2021/12/20 03:42:07;;;;;;;37.40;20.33;;;6.40;99.90;;;;;;5059111;28;20230;-64
2021/12/20 03:44:43;;;;;;;46.37;20.27;;;6.40;99.90;;;;;;5092478;28;20192;-64
2021/12/20 03:47:12;;;;;;;48.00;20.53;;;6.40;99.90;;;;;;5083696;28;20190;-65
2021/12/20 03:49:41;;;;;;;47.80;21.10;;;6.40;99.90;;;;;;5084886;28;20238;-64
2021/12/20 03:52:10;;;;;;;39.27;20.57;;;6.40;99.90;;;;;;5083527;28;20201;-64
2021/12/20 03:54:40;;;;;;;46.60;21.23;;;6.40;99.90;;;;;;5078094;28;20209;-64
2021/12/20 03:57:09;;;;;;;43.57;20.63;;;6.40;99.90;;;;;;5080908;28;20238;-64
2021/12/20 03:59:37;;;;;;;41.20;20.73;;;6.40;99.90;;;;;;5083704;28;20277;-65
2021/12/20 04:02:07;;;;;;;45.50;21.50;;;6.40;99.90;;;;;;5076112;28;20404;-65
2021/12/20 04:04:36;;;;;;;44.97;21.97;;;6.40;99.90;;;;;;5083840;28;20229;-64
2021/12/20 04:07:05;;;;;;;44.60;21.90;;;6.40;99.90;;;;;;5083493;28;20264;-65
2021/12/20 04:09:34;;;;;;;45.73;20.90;;;6.40;99.90;;;;;;5085958;28;20224;-65
2021/12/20 04:12:04;;;;;;;45.57;21.23;;;6.40;99.90;;;;;;5084321;28;20199;-65
2021/12/20 04:14:33;;;;;;;43.93;20.63;;;6.40;99.90;;;;;;5082171;28;20227;-65
2021/12/20 04:17:01;;;;;;;48.03;21.70;;;6.40;99.90;;;;;;5083315;28;20268;-65
2021/12/20 04:19:30;;;;;;;40.80;21.30;;;6.40;99.90;;;;;;5068209;28;20191;-65
2021/12/20 04:21:58;;;;;;;48.27;21.60;;;6.40;99.90;;;;;;5088549;28;20187;-64
2021/12/20 04:24:27;;;;;;;45.93;21.10;;;6.40;99.90;;;;;;5079743;28;20196;-65
2021/12/20 04:26:56;;;;;;;49.00;22.33;;;6.40;99.90;;;;;;5062791;28;20258;-65
2021/12/20 04:29:27;;;;;;;47.00;21.77;;;6.40;99.90;;;;;;5085393;28;20198;-64
2021/12/20 04:31:56;;;;;;;47.07;22.17;;;6.40;99.90;;;;;;5085139;28;20690;-64
2021/12/20 04:34:25;;;;;;;50.10;21.70;;;6.40;99.90;;;;;;5067037;28;20190;-64
2021/12/20 04:36:53;;;;;;;48.30;22.10;;;6.40;99.90;;;;;;5086771;28;20230;-64
2021/12/20 04:39:27;;;;;;;41.00;20.87;;;6.30;99.90;;;;;;5065026;28;20215;-65
2021/12/20 04:41:55;;;;;;;48.03;22.30;;;6.40;99.90;;;;;;5076665;28;20231;-64
2021/12/20 04:44:25;;;;;;;52.00;21.80;;;6.30;99.90;;;;;;5062766;28;20242;-66
2021/12/20 04:46:54;;;;;;;50.13;22.50;;;6.30;99.90;;;;;;5079582;28;20285;-65
2021/12/20 04:49:24;;;;;;;49.67;23.10;;;6.30;99.90;;;;;;5086510;28;21000;-65
2021/12/20 04:51:53;;;;;;;52.10;22.10;;;6.30;99.90;;;;;;5082736;28;20194;-65
2021/12/20 04:54:22;;;;;;;45.73;21.17;;;6.30;99.90;;;;;;5079228;28;20278;-65
2021/12/20 04:56:51;;;;;;;46.30;21.90;;;6.30;99.90;;;;;;5080999;28;20562;-64
2021/12/20 04:59:20;;;;;;;50.03;22.10;;;6.30;99.90;;;;;;5063798;28;20696;-65
2021/12/20 05:01:49;;;;;;;45.97;20.93;;;6.30;99.90;;;;;;5082739;28;20191;-65
2021/12/20 05:04:18;;;;;;;46.47;21.47;;;6.30;99.90;;;;;;5082754;28;20553;-65
2021/12/20 05:06:48;;;;;;;51.30;20.70;;;6.30;99.90;;;;;;5088958;28;20303;-64
2021/12/20 05:09:18;;;;;;;52.40;21.97;;;6.20;99.90;;;;;;5085568;28;20218;-64
2021/12/20 05:11:50;;;;;;;49.80;22.13;;;6.20;99.90;;;;;;5083884;28;20216;-65
2021/12/20 05:14:19;;;;;;;48.27;21.83;;;6.20;99.90;;;;;;5061552;28;20314;-64
2021/12/20 05:16:49;;;;;;;45.93;21.20;;;6.30;99.90;;;;;;5069735;28;20212;-65
2021/12/20 05:19:17;;;;;;;48.73;22.63;;;6.30;99.90;;;;;;5084197;28;20623;-64
2021/12/20 05:21:46;;;;;;;44.60;21.27;;;6.30;99.90;;;;;;5081249;28;20199;-65
2021/12/20 05:24:18;;;;;;;53.87;22.13;;;6.20;99.90;;;;;;5080520;28;20278;-64
2021/12/20 05:26:47;;;;;;;53.97;22.57;;;6.20;99.90;;;;;;5084377;28;20218;-64
2021/12/20 05:29:15;;;;;;;48.70;22.10;;;6.20;99.90;;;;;;5079052;28;20286;-64
2021/12/20 05:31:44;;;;;;;43.90;21.13;;;6.20;99.90;;;;;;5075737;28;20669;-65
2021/12/20 05:34:14;;;;;;;45.00;20.77;;;6.20;99.90;;;;;;5092905;28;20192;-65
2021/12/20 05:36:43;;;;;;;54.83;21.37;;;6.20;99.90;;;;;;5076344;28;20242;-65
2021/12/20 05:39:11;;;;;;;46.23;20.80;;;6.20;99.90;;;;;;5081042;28;20784;-65
2021/12/20 05:41:40;;;;;;;42.40;20.00;;;6.20;99.90;;;;;;5080250;28;20202;-64
2021/12/20 05:44:08;;;;;;;52.80;20.70;;;6.20;99.90;;;;;;5079762;28;20195;-65
2021/12/20 05:46:37;;;;;;;40.83;21.03;;;6.20;99.90;;;;;;5077492;28;20692;-64
2021/12/20 05:49:06;;;;;;;45.87;20.73;;;6.20;99.90;;;;;;5082926;28;20631;-64
2021/12/20 05:51:35;;;;;;;39.03;17.40;;;6.10;99.90;;;;;;5082136;28;20744;-65
2021/12/20 05:54:04;;;;;;;36.23;16.97;;;6.10;99.90;;;;;;5074712;28;20752;-65
2021/12/20 05:56:33;;;;;;;35.87;16.30;;;6.10;99.90;;;;;;5088469;28;20264;-64
2021/12/20 05:59:01;;;;;;;34.60;14.73;;;6.10;99.90;;;;;;5090160;28;20229;-65
2021/12/20 06:01:30;;;;;;;26.27;13.13;;;6.00;99.90;;;;;;5062249;28;20184;-64
2021/12/20 06:04:37;;;;;;;30.53;11.60;;;6.00;99.90;;;;;;5077290;28;20195;-64
2021/12/20 06:07:44;;;;;;;32.60;10.50;;;6.00;99.90;;;;;;5082490;28;20616;-64
2021/12/20 06:10:15;;;;;;;22.27;10.17;;;5.90;99.90;;;;;;5059024;28;20188;-65
2021/12/20 06:12:45;;;;;;;19.80;8.70;;;5.90;99.90;;;;;;5068317;28;20592;-65
2021/12/20 06:15:14;;;;;;;14.00;7.37;;;6.00;99.90;;;;;;5076728;28;20301;-64
2021/12/20 06:17:43;;;;;;;20.33;6.63;;;5.90;99.90;;;;;;5081913;28;20789;-65
2021/12/20 06:20:13;;;;;;;15.93;5.10;;;5.90;99.90;;;;;;5063802;28;20235;-64
2021/12/20 06:22:44;;;;;;;18.63;5.17;;;5.90;99.90;;;;;;5088984;28;20203;-65
2021/12/20 06:25:12;;;;;;;17.13;5.30;;;6.00;99.90;;;;;;5060085;28;20593;-65
2021/12/20 06:27:43;;;;;;;17.93;5.10;;;6.00;99.90;;;;;;5096777;28;20199;-65
2021/12/20 06:30:12;;;;;;;16.70;5.17;;;6.00;99.90;;;;;;5080507;28;20841;-65
2021/12/20 06:32:43;;;;;;;15.03;3.60;;;6.00;99.90;;;;;;5083066;28;20733;-64
2021/12/20 06:35:32;;;;;;;13.00;4.40;;;6.00;99.90;;;;;;5084888;28;20291;-64
2021/12/20 06:38:04;;;;;;;15.43;4.27;;;6.10;99.90;;;;;;5081403;28;20207;-64
2021/12/20 06:40:34;;;;;;;9.53;3.83;;;6.00;99.90;;;;;;5076597;28;20242;-64
2021/12/20 06:43:04;;;;;;;11.83;3.83;;;6.00;99.90;;;;;;5075948;28;20219;-65
2021/12/20 06:45:33;;;;;;;8.33;3.70;;;6.00;99.90;;;;;;5086487;28;20226;-65
2021/12/20 06:48:02;;;;;;;17.43;4.43;;;5.90;99.90;;;;;;5080320;28;20732;-64
2021/12/20 06:50:30;;;;;;;13.33;4.30;;;5.90;99.90;;;;;;5074716;28;20180;-65
2021/12/20 06:52:59;;;;;;;18.47;4.80;;;5.90;99.90;;;;;;5078647;28;20195;-65
2021/12/20 06:55:29;;;;;;;16.80;5.33;;;5.80;99.90;;;;;;5095370;28;20278;-65
2021/12/20 06:57:57;;;;;;;17.03;5.00;;;5.80;99.90;;;;;;5078661;28;20757;-64
2021/12/20 07:00:27;;;;;;;18.33;4.93;;;5.80;99.90;;;;;;5082426;28;20269;-65
2021/12/20 07:02:55;;;;;;;22.17;5.43;;;5.80;99.90;;;;;;5089056;28;20196;-65
2021/12/20 07:05:24;;;;;;;12.03;5.00;;;5.80;99.90;;;;;;5088052;28;20203;-65
2021/12/20 07:07:53;;;;;;;14.40;4.70;;;5.80;99.90;;;;;;5076578;28;20646;-65
2021/12/20 07:10:22;;;;;;;11.37;4.77;;;5.80;99.90;;;;;;5078893;28;20238;-65
2021/12/20 07:12:52;;;;;;;13.57;5.37;;;5.70;99.90;;;;;;5080586;28;20278;-65
2021/12/20 07:15:21;;;;;;;16.73;5.77;;;5.80;99.90;;;;;;5080486;28;20271;-65
2021/12/20 07:17:49;;;;;;;21.33;5.60;;;5.70;99.90;;;;;;5082567;28;20199;-64
2021/12/20 07:20:18;;;;;;;19.80;6.73;;;5.70;99.90;;;;;;5070774;28;20216;-64
2021/12/20 07:22:46;;;;;;;21.23;7.30;;;5.70;99.90;;;;;;5067740;28;20254;-64
2021/12/20 07:25:15;;;;;;;18.03;8.10;;;5.70;99.90;;;;;;5070814;28;20278;-65
2021/12/20 07:27:47;;;;;;;24.80;9.37;;;5.70;99.90;;;;;;5075734;28;20275;-65
2021/12/20 07:30:18;;;;;;;26.20;10.77;;;5.70;99.90;;;;;;5059639;28;20716;-65
2021/12/20 07:32:48;;;;;;;21.00;9.50;;;5.70;99.90;;;;;;5070028;28;20255;-64
2021/12/20 07:35:17;;;;;;;29.63;10.80;;;5.60;99.90;;;;;;5084064;28;20554;-65
2021/12/20 07:37:47;;;;;;;22.67;9.07;;;5.60;99.90;;;;;;5069027;28;20736;-65
2021/12/20 07:40:16;;;;;;;17.30;8.63;;;5.60;99.90;;;;;;5067118;28;20305;-64
2021/12/20 07:42:44;;;;;;;20.30;7.97;;;5.60;99.90;;;;;;5070398;28;20215;-64
2021/12/20 07:45:13;;;;;;;22.60;7.93;;;5.60;99.90;;;;;;5076345;28;20282;-65
2021/12/20 07:47:50;;;;;;;18.13;7.27;;;5.60;99.90;;;;;;5074038;28;20187;-65
2021/12/20 07:50:19;;;;;;;17.57;6.70;;;5.60;99.90;;;;;;5073697;28;20204;-68
2021/12/20 07:52:48;;;;;;;17.87;6.40;;;5.60;99.90;;;;;;5076290;28;20195;-64
2021/12/20 07:55:17;;;;;;;31.37;5.17;;;5.60;99.90;;;;;;5073799;28;20203;-64
2021/12/20 07:57:46;;;;;;;25.13;6.20;;;5.60;99.90;;;;;;5072828;28;20203;-64
2021/12/20 08:00:15;;;;;;;25.90;5.57;;;5.60;99.90;;;;;;5071887;28;20203;-64
2021/12/20 08:02:44;;;;;;;29.00;5.90;;;5.60;99.90;;;;;;5071418;28;20195;-64
2021/12/20 08:05:18;;;;;;;29.00;5.67;;;5.60;99.90;;;;;;5059535;28;20673;-64
2021/12/20 08:07:48;;;;;;;19.73;5.73;;;5.60;99.90;;;;;;5075648;28;20298;-64
2021/12/20 08:10:18;;;;;;;21.10;4.90;;;5.60;99.90;;;;;;5084703;28;20190;-64
2021/12/20 08:12:47;;;;;;;21.90;4.90;;;5.60;99.90;;;;;;5083713;28;20206;-65
2021/12/20 08:15:17;;;;;;;18.43;4.80;;;5.70;99.90;;;;;;5070390;28;20326;-64
2021/12/20 08:17:46;;;;;;;17.23;4.70;;;5.70;99.90;;;;;;5070193;28;20218;-65
2021/12/20 08:20:16;;;;;;;17.87;4.53;;;5.70;99.90;;;;;;5081194;28;20202;-64
2021/12/20 08:22:47;;;;;;;16.23;4.57;;;5.70;99.90;;;;;;5068259;28;20666;-64
2021/12/20 08:25:18;;;;;;;17.50;4.57;;;5.80;99.90;;;;;;5077334;28;20706;-65
2021/12/20 08:27:47;;;;;;;21.40;5.40;;;5.80;99.90;;;;;;5079694;28;20200;-64
2021/12/20 08:30:17;;;;;;;18.33;5.33;;;5.90;99.90;;;;;;5080647;28;20873;-64
2021/12/20 08:32:46;;;;;;;16.83;5.10;;;5.90;99.90;;;;;;5075661;28;20199;-64
2021/12/20 08:35:16;;;;;;;18.57;5.53;;;5.90;99.90;;;;;;5069748;28;20212;-65
2021/12/20 08:37:45;;;;;;;19.27;5.73;;;5.90;99.90;;;;;;5071040;28;20203;-64
2021/12/20 08:40:16;;;;;;;18.57;6.07;;;6.00;99.90;;;;;;5077144;28;20632;-65
2021/12/20 08:42:45;;;;;;;17.83;5.87;;;5.90;99.90;;;;;;5077845;28;20188;-64
2021/12/20 08:45:16;;;;;;;17.43;5.13;;;5.90;99.90;;;;;;5081166;28;20195;-64
2021/12/20 08:47:50;;;;;;;15.67;5.17;;;6.00;99.90;;;;;;5055645;28;20242;-65
2021/12/20 08:50:23;;;;;;;27.00;5.27;;;6.00;99.90;;;;;;5080487;28;20274;-65
2021/12/20 08:52:52;;;;;;;24.87;5.33;;;6.00;99.90;;;;;;5076214;28;20207;-65
2021/12/20 08:55:20;;;;;;;16.20;4.80;;;6.00;99.90;;;;;;5078558;28;20208;-64
2021/12/20 08:57:49;;;;;;;19.20;4.60;;;6.00;99.90;;;;;;5081289;28;20203;-65
2021/12/20 09:00:20;;;;;;;17.00;3.80;;;6.00;99.90;;;;;;5066334;28;20703;-64
2021/12/20 09:02:50;;;;;;;15.70;4.07;;;6.00;99.90;;;;;;5082153;28;20643;-65
2021/12/20 09:05:21;;;;;;;23.80;4.70;;;6.00;99.90;;;;;;5082158;28;20195;-65
2021/12/20 09:07:49;;;;;;;21.97;4.77;;;6.10;99.90;;;;;;5082721;28;20551;-65
2021/12/20 09:10:19;;;;;;;25.40;4.73;;;6.10;99.90;;;;;;5076367;28;20203;-64
2021/12/20 09:12:48;;;;;;;15.03;4.03;;;6.20;99.90;;;;;;5081160;28;20204;-64
2021/12/20 09:15:18;;;;;;;22.07;4.27;;;6.20;99.90;;;;;;5074105;28;20740;-64
2021/12/20 09:17:48;;;;;;;19.23;4.23;;;6.30;99.90;;;;;;5078802;28;20257;-64
2021/12/20 09:20:19;;;;;;;17.63;3.93;;;6.40;99.90;;;;;;5082478;28;20235;-64
2021/12/20 09:22:51;;;;;;;14.93;3.60;;;6.40;99.90;;;;;;5060347;28;20198;-65
2021/12/20 09:25:22;;;;;;;16.43;3.67;;;6.50;99.90;;;;;;5078576;28;20586;-65
2021/12/20 09:27:51;;;;;;;11.97;3.10;;;6.50;99.90;;;;;;5081842;28;20196;-65
2021/12/20 09:30:21;;;;;;;11.13;3.40;;;6.60;99.90;;;;;;5083389;28;20191;-64
2021/12/20 09:32:49;;;;;;;16.77;3.07;;;6.60;99.90;;;;;;5084954;28;20604;-64
2021/12/20 09:35:19;;;;;;;13.07;3.20;;;6.60;99.90;;;;;;5062497;28;20195;-64
2021/12/20 09:37:51;;;;;;;23.13;4.83;;;6.60;99.90;;;;;;5080641;28;20673;-65
2021/12/20 09:40:31;;;;;;;22.67;4.30;;;6.60;99.90;;;;;;5084173;28;20215;-65
2021/12/20 09:43:02;;;;;;;12.73;3.40;;;6.70;99.90;;;;;;5082801;28;20208;-65
2021/12/20 09:45:32;;;;;;;13.97;3.53;;;6.70;99.90;;;;;;5076443;28;20198;-65
2021/12/20 09:48:01;;;;;;;18.73;3.60;;;6.70;99.90;;;;;;5083257;28;20252;-65
2021/12/20 09:50:29;;;;;;;17.87;4.27;;;6.70;99.90;;;;;;5089405;28;20260;-64
2021/12/20 09:53:04;;;;;;;18.87;4.10;;;6.70;99.90;;;;;;5078238;28;20196;-65
2021/12/20 09:55:33;;;;;;;15.17;3.63;;;6.70;99.90;;;;;;5064563;28;20744;-65
2021/12/20 09:58:04;;;;;;;17.50;3.33;;;6.70;99.90;;;;;;5070775;28;20250;-65
2021/12/20 10:00:33;;;;;;;12.87;3.60;;;6.80;99.90;;;;;;5087449;28;20227;-65
2021/12/20 10:03:02;;;;;;;20.10;3.90;;;6.80;99.90;;;;;;5078050;28;20188;-65
2021/12/20 10:05:32;;;;;;;18.07;3.73;;;6.80;99.90;;;;;;5083624;28;20282;-65
2021/12/20 10:08:12;;;;;;;14.83;3.50;;;6.80;99.90;;;;;;5076040;28;20207;-65
2021/12/20 10:10:42;;;;;;;16.67;3.57;;;6.90;99.90;;;;;;5083452;28;20281;-65
2021/12/20 10:13:21;;;;;;;11.40;3.40;;;6.90;99.90;;;;;;5079262;28;20188;-65
2021/12/20 10:15:50;;;;;;;16.27;3.50;;;6.90;99.90;;;;;;5065548;28;20225;-65
2021/12/20 10:18:19;;;;;;;36.57;4.93;;;6.90;99.90;;;;;;5078114;28;20191;-65
2021/12/20 10:20:51;;;;;;;20.27;3.80;;;6.90;99.90;;;;;;5082211;28;20690;-65
2021/12/20 10:23:24;;;;;;;15.50;3.63;;;7.00;99.90;;;;;;5076097;28;20626;-65
2021/12/20 10:25:55;;;;;;;16.97;3.93;;;6.90;99.90;;;;;;5058862;28;20206;-65
2021/12/20 10:28:33;;;;;;;16.67;3.10;;;7.00;99.90;;;;;;5070682;28;20203;-65
2021/12/20 10:31:05;;;;;;;19.57;3.63;;;7.00;99.90;;;;;;5055844;28;21504;-65
2021/12/20 10:33:34;;;;;;;19.37;3.50;;;7.10;99.90;;;;;;5052125;28;20196;-64
2021/12/20 10:36:06;;;;;;;12.93;3.40;;;7.10;99.90;;;;;;5081709;28;20382;-65
2021/12/20 10:38:38;;;;;;;21.60;3.70;;;7.20;99.90;;;;;;5075894;28;20754;-65
2021/12/20 10:41:11;;;;;;;19.40;3.83;;;7.30;99.90;;;;;;5079557;28;20254;-65
2021/12/20 10:43:48;;;;;;;17.63;3.23;;;7.30;99.90;;;;;;5088814;28;20206;-65
2021/12/20 10:46:19;;;;;;;17.10;3.20;;;7.30;99.90;;;;;;5075386;28;20234;-65
2021/12/20 10:48:50;;;;;;;19.63;3.67;;;7.20;99.90;;;;;;5076135;28;20249;-65
2021/12/20 10:51:21;;;;;;;11.63;3.70;;;7.30;99.90;;;;;;5081713;28;20199;-65
2021/12/20 10:53:57;;;;;;;13.37;3.60;;;7.20;99.90;;;;;;5076101;28;20226;-65
2021/12/20 10:56:28;;;;;;;15.47;3.40;;;7.30;99.90;;;;;;5081711;28;20208;-65
2021/12/20 10:58:58;;;;;;;10.93;3.33;;;7.30;99.90;;;;;;5083868;28;20818;-65
2021/12/20 11:01:53;;;;;;;13.43;4.20;;;7.40;99.90;;;;;;5057742;28;20880;-65
2021/12/20 11:04:25;;;;;;;14.73;3.47;;;7.50;99.90;;;;;;5057717;28;20877;-65
2021/12/20 11:09:04;;;;;;;15.17;4.23;;;7.50;99.90;;;;;;5081372;28;20196;-65
2021/12/20 11:09:55;;;;;;;13.00;4.07;;;7.60;99.90;;;;;;5085618;28;20261;-65
2021/12/20 11:12:25;;;;;;;16.17;3.47;;;7.60;99.90;;;;;;5076320;28;20846;-65
2021/12/20 11:14:57;;;;;;;17.80;3.30;;;7.70;99.90;;;;;;5073535;28;20772;-65
2021/12/20 11:17:25;;;;;;;16.37;4.67;;;7.70;99.90;;;;;;5055865;28;20203;-65
2021/12/20 11:19:56;;;;;;;15.63;4.20;;;7.70;99.90;;;;;;5085878;28;20294;-65
2021/12/20 11:22:26;;;;;;;17.93;4.20;;;7.70;99.90;;;;;;5061824;28;20578;-65
2021/12/20 11:24:58;;;;;;;13.37;3.40;;;7.70;99.90;;;;;;5080213;28;20199;-65
2021/12/20 11:27:32;;;;;;;25.43;4.37;;;7.80;99.90;;;;;;5077739;28;20184;-65
2021/12/20 11:30:09;;;;;;;17.40;3.87;;;7.80;99.90;;;;;;5075665;28;20223;-65
2021/12/20 11:32:38;;;;;;;16.37;4.53;;;7.70;99.90;;;;;;5085900;28;20207;-65
2021/12/20 11:35:14;;;;;;;18.23;4.60;;;7.70;99.90;;;;;;5086434;28;20198;-65
2021/12/20 11:37:43;;;;;;;22.03;5.00;;;7.60;99.90;;;;;;5059363;28;20227;-65
2021/12/20 11:40:18;;;;;;;13.27;3.80;;;7.70;99.90;;;;;;5078981;28;20663;-64
2021/12/20 11:42:48;;;;;;;20.50;4.33;;;7.70;99.90;;;;;;5082320;28;20210;-65
2021/12/20 11:45:18;;;;;;;13.97;3.40;;;7.80;99.90;;;;;;5084445;28;20226;-65
2021/12/20 11:47:52;;;;;;;18.93;4.03;;;7.80;99.90;;;;;;5081645;28;20206;-65
2021/12/20 11:50:22;;;;;;;24.33;5.23;;;7.70;99.90;;;;;;5085993;28;20200;-65
2021/12/20 11:52:52;;;;;;;19.37;4.47;;;7.70;99.90;;;;;;5071978;28;20190;-65
2021/12/20 11:55:25;;;;;;;20.77;4.23;;;7.60;99.90;;;;;;5069700;28;20207;-65
2021/12/20 11:57:55;;;;;;;12.90;3.80;;;7.50;99.90;;;;;;5076618;28;20214;-65
2021/12/20 12:00:29;;;;;;;16.57;4.63;;;7.40;99.90;;;;;;5055800;28;20191;-64
2021/12/20 12:03:20;;;;;;;20.37;4.80;;;7.50;99.90;;;;;;5079421;28;20195;-65
2021/12/20 12:05:50;;;;;;;17.97;4.67;;;7.50;99.90;;;;;;5060734;28;20231;-65
2021/12/20 12:08:26;;;;;;;14.70;4.13;;;7.50;99.90;;;;;;5072404;28;20199;-65
2021/12/20 12:11:13;;;;;;;16.83;4.53;;;7.50;99.90;;;;;;5062387;28;20179;-65
2021/12/20 12:14:18;;;;;;;18.10;5.17;;;7.50;99.90;;;;;;5084064;28;20586;-65
2021/12/20 12:17:00;;;;;;;18.40;4.50;;;7.50;99.90;;;;;;5084611;28;20210;-65
2021/12/20 12:19:46;;;;;;;16.77;5.57;;;7.50;99.90;;;;;;5083714;28;20249;-65
2021/12/20 12:22:40;;;;;;;20.13;5.30;;;7.40;99.90;;;;;;5077117;28;20766;-65
2021/12/20 12:25:15;;;;;;;11.83;5.30;;;7.40;99.90;;;;;;5061448;28;20196;-65
2021/12/20 12:27:45;;;;;;;17.00;4.70;;;7.30;99.90;;;;;;5078189;28;20192;-65
2021/12/20 12:30:32;;;;;;;16.47;4.77;;;7.30;99.90;;;;;;5058896;28;20587;-65
2021/12/20 12:33:24;;;;;;;14.80;4.57;;;7.20;99.90;;;;;;5086963;28;20772;-65
2021/12/20 12:35:56;;;;;;;22.87;5.13;;;7.30;99.90;;;;;;5078610;28;20201;-65
2021/12/20 12:38:27;;;;;;;18.77;4.30;;;7.30;99.90;;;;;;5073160;28;20828;-65
2021/12/20 12:41:22;;;;;;;12.73;3.80;;;7.30;99.90;;;;;;5075631;28;20278;-65
2021/12/20 12:44:02;;;;;;;12.53;3.67;;;7.30;99.90;;;;;;5073752;28;20307;-65
2021/12/20 12:47:03;;;;;;;11.73;3.50;;;7.20;99.90;;;;;;5074163;28;20206;-65
2021/12/20 12:49:47;;;;;;;14.37;3.57;;;7.30;99.90;;;;;;5088995;28;20195;-65
2021/12/20 12:52:48;;;;;;;15.73;4.53;;;7.30;99.90;;;;;;5077783;28;20197;-65
2021/12/20 12:55:29;;;;;;;7.37;3.67;;;7.20;99.90;;;;;;5076663;28;20248;-65
2021/12/20 12:57:59;;;;;;;13.67;3.43;;;7.30;99.90;;;;;;5074473;28;20536;-65
2021/12/20 13:00:32;;;;;;;19.63;4.57;;;7.20;99.90;;;;;;5076893;28;20184;-65
2021/12/20 13:03:16;;;;;;;10.80;3.00;;;7.30;99.90;;;;;;5079849;28;20283;-65
2021/12/20 13:05:44;;;;;;;13.77;2.67;;;7.30;99.90;;;;;;5082710;28;20199;-65
2021/12/20 13:08:13;;;;;;;10.73;3.77;;;7.30;99.90;;;;;;5058077;28;20381;-65
2021/12/20 13:10:43;;;;;;;13.53;3.70;;;7.30;99.90;;;;;;5056336;28;20196;-65
2021/12/20 13:13:17;;;;;;;14.90;3.93;;;7.30;99.90;;;;;;5076238;28;20194;-65
2021/12/20 13:15:54;;;;;;;13.33;4.50;;;7.30;99.90;;;;;;5074109;28;20299;-65
2021/12/20 13:18:31;;;;;;;9.53;3.10;;;7.30;99.90;;;;;;5071768;28;20199;-65